Saturday, November 18, 2017, 11:46 PM EST
Back to Local

KMFV, Melfa / Accomack Airport

Location: Melfa, VA, United States Lat: 37.65
Local Time: 11:46 PM EST ( 4:46 GMT) Lon: -75.767
Time Zone: US/Eastern Elev: 49 ft

Show me the last for .
Show Decoded

2017-11-18 23:10 METAR KMFV 190410Z AUTO 20012G20KT 10SM SCT060 17/13 A2959 RMK AO2 T01670130 =
2017-11-18 22:30 METAR KMFV 190330Z AUTO 19014G20KT 10SM SCT060 17/13 A2961 RMK AO2 T01700126 =
2017-11-18 22:10 METAR KMFV 190310Z AUTO 20012G21KT 10SM CLR 18/12 A2963 RMK AO2 T01750124 =
2017-11-18 21:50 METAR KMFV 190250Z AUTO 19012G19KT 170V230 10SM CLR 17/12 A2963 RMK AO2
                 T01710122 =
2017-11-18 21:30 METAR KMFV 190230Z AUTO 20010G16KT 10SM CLR 17/12 A2964 RMK AO2 T01650117 =
2017-11-18 21:10 METAR KMFV 190210Z AUTO 19012G19KT 10SM CLR 16/11 A2964 RMK AO2 T01640112 =
2017-11-18 20:50 METAR KMFV 190150Z AUTO 19013G22KT 10SM CLR 16/11 A2965 RMK AO2 T01620109 =
2017-11-18 20:30 METAR KMFV 190130Z AUTO 19015G20KT 10SM CLR 16/11 A2965 RMK AO2 T01600108 =
2017-11-18 20:10 METAR KMFV 190110Z AUTO 19011G22KT 10SM CLR 16/11 A2965 RMK AO2 T01580110 =
2017-11-18 19:50 METAR KMFV 190050Z AUTO 18013G19KT 10SM CLR 15/11 A2966 RMK AO2 T01530113 =
2017-11-18 19:30 METAR KMFV 190030Z AUTO 19011G15KT 10SM CLR 15/11 A2968 RMK AO2 T01510113 =
2017-11-18 19:10 METAR KMFV 190010Z AUTO 18011G20KT 10SM CLR 15/11 A2968 RMK AO2 T01500112 =
2017-11-18 18:50 METAR KMFV 182350Z AUTO 18014G18KT 10SM CLR 15/11 A2968 RMK AO2 T01500110 10156
                 20143 =
2017-11-18 18:30 METAR KMFV 182330Z AUTO 18011G23KT 10SM CLR 16/11 A2970 RMK AO2 T01550109 =
2017-11-18 18:10 METAR KMFV 182310Z AUTO 19013G20KT 10SM CLR 16/11 A2970 RMK AO2 T01550106 =
2017-11-18 17:50 METAR KMFV 182250Z AUTO 19010G16KT 10SM CLR 15/11 A2971 RMK AO2 T01500105 =
2017-11-18 17:30 METAR KMFV 182230Z AUTO 18010G15KT 10SM CLR 15/10 A2971 RMK AO2 T01450103 =
2017-11-18 17:10 METAR KMFV 182210Z AUTO 18011G16KT 10SM CLR 15/10 A2971 RMK AO2 T01450102 =
2017-11-18 16:50 METAR KMFV 182150Z AUTO 18010G16KT 10SM CLR 15/10 A2972 RMK AO2 T01460097 =
2017-11-18 16:30 METAR KMFV 182130Z AUTO 18010G17KT 10SM CLR 15/09 A2971 RMK AO2 T01490093 =
2017-11-18 16:10 METAR KMFV 182110Z AUTO 18009G15KT 10SM CLR 15/10 A2972 RMK AO2 T01500095 =
2017-11-18 15:50 METAR KMFV 182050Z AUTO 19010KT 10SM CLR 15/09 A2972 RMK AO2 T01490093 =
2017-11-18 15:30 METAR KMFV 182030Z AUTO 19009G15KT 10SM CLR 15/09 A2973 RMK AO2 T01470093 =
2017-11-18 15:10 METAR KMFV 182010Z AUTO 19010G16KT 10SM CLR 15/09 A2973 RMK AO2 T01450091 =
2017-11-18 14:50 METAR KMFV 181950Z AUTO 18010G17KT 10SM CLR 15/09 A2974 RMK AO2 T01470086 =
2017-11-18 14:30 METAR KMFV 181930Z AUTO 19011G21KT 10SM CLR 15/08 A2975 RMK AO2 T01470083 =
2017-11-18 14:10 METAR KMFV 181910Z AUTO 18012G16KT 10SM CLR 15/07 A2976 RMK AO2 T01490070 =
2017-11-18 13:50 METAR KMFV 181850Z AUTO 18013G20KT 10SM CLR 15/06 A2978 RMK AO2 T01540062 =
2017-11-18 13:30 METAR KMFV 181830Z AUTO 18009G14KT 10SM CLR 15/07 A2979 RMK AO2 T01480065 =
2017-11-18 13:10 METAR KMFV 181810Z AUTO 18013G22KT 10SM CLR 15/05 A2981 RMK AO2 T01460049 =
2017-11-18 12:50 METAR KMFV 181750Z AUTO 18012G20KT 10SM CLR 15/06 A2982 RMK AO2 T01490056 10162
                 20044 =
2017-11-18 12:30 METAR KMFV 181730Z AUTO 18013G19KT 10SM CLR 15/06 A2984 RMK AO2 T01480055 =
2017-11-18 12:10 METAR KMFV 181710Z AUTO 18012G21KT 10SM CLR 16/03 A2985 RMK AO2 T01610031 =
2017-11-18 11:50 METAR KMFV 181650Z AUTO 21011G19KT 180V240 10SM CLR 15/03 A2987 RMK AO2
                 T01520031 =
2017-11-18 11:30 METAR KMFV 181630Z AUTO 20014G23KT 10SM CLR 15/03 A2989 RMK AO2 T01480032 =
2017-11-18 11:10 METAR KMFV 181610Z AUTO 22011G16KT 10SM CLR 15/04 A2991 RMK AO2 T01460039 =
2017-11-18 10:50 METAR KMFV 181550Z AUTO 22015G23KT 10SM CLR 14/04 A2993 RMK AO2 T01390041 =
2017-11-18 10:30 METAR KMFV 181530Z AUTO 21017G22KT 10SM CLR 13/05 A2994 RMK AO2 T01300048 =
2017-11-18 10:10 METAR KMFV 181510Z AUTO 22009G16KT 180V250 10SM CLR 13/04 A2996 RMK AO2
                 T01300044 =
2017-11-18 09:50 METAR KMFV 181450Z AUTO 21009G15KT 10SM CLR 12/04 A2997 RMK AO2 T01160044 =
2017-11-18 09:30 METAR KMFV 181430Z AUTO 19009KT 10SM CLR 11/05 A2997 RMK AO2 T01080046 =
2017-11-18 09:10 METAR KMFV 181410Z AUTO 19008G16KT 10SM CLR 10/04 A2998 RMK AO2 T00960044 =
2017-11-18 08:50 METAR KMFV 181350Z AUTO 20008KT 170V240 10SM CLR 10/04 A3000 RMK AO2 T00950041 =
2017-11-18 08:30 METAR KMFV 181330Z AUTO 20007KT 10SM CLR 09/05 A3001 RMK AO2 T00890045 =
2017-11-18 08:10 METAR KMFV 181310Z AUTO 19008KT 10SM CLR 08/04 A3001 RMK AO2 T00800040 =
2017-11-18 07:50 METAR KMFV 181250Z AUTO 19008KT 10SM CLR 07/04 A3001 RMK AO2 T00710035 =
2017-11-18 07:30 METAR KMFV 181230Z AUTO 20007KT 10SM CLR 06/03 A3002 RMK AO2 T00610030 =
2017-11-18 07:10 METAR KMFV 181210Z AUTO 19007KT 10SM CLR 05/02 A3003 RMK AO2 T00520024 =
2017-11-18 06:50 METAR KMFV 181150Z AUTO 18007KT 10SM CLR 04/02 A3003 RMK AO2 T00410016 10046
                 20010 =
2017-11-18 06:30 METAR KMFV 181130Z AUTO 19007KT 10SM CLR 04/02 A3004 RMK AO2 T00400015 =
2017-11-18 06:10 METAR KMFV 181110Z AUTO 19006KT 10SM CLR 04/01 A3005 RMK AO2 T00360014 =
2017-11-18 05:50 METAR KMFV 181050Z AUTO 20007KT 10SM CLR 05/02 A3005 RMK AO2 T00460017 =
2017-11-18 05:30 METAR KMFV 181030Z AUTO 20008KT 10SM CLR 04/02 A3006 RMK AO2 T00440017 =
2017-11-18 05:10 METAR KMFV 181010Z AUTO 20006KT 10SM CLR 04/02 A3005 RMK AO2 T00350015 =
2017-11-18 04:50 METAR KMFV 180950Z AUTO 20006KT 10SM CLR 04/02 A3005 RMK AO2 T00350017 =
2017-11-18 04:30 METAR KMFV 180930Z AUTO 20005KT 10SM CLR 03/02 A3006 RMK AO2 T00330017 =
2017-11-18 04:10 METAR KMFV 180910Z AUTO 22004KT 10SM CLR 02/01 A3006 RMK AO2 T00230010 =
2017-11-18 03:50 METAR KMFV 180850Z AUTO 19006KT 10SM CLR 02/01 A3006 RMK AO2 T00180005 =
2017-11-18 03:30 METAR KMFV 180830Z AUTO 19005KT 10SM CLR 03/01 A3006 RMK AO2 T00260013 =
2017-11-18 03:10 METAR KMFV 180810Z AUTO 18006KT 10SM CLR 02/01 A3007 RMK AO2 T00240010 =
2017-11-18 02:50 METAR KMFV 180750Z AUTO 19006KT 10SM CLR 01/01 A3009 RMK AO2 T00120007 =
2017-11-18 02:30 METAR KMFV 180730Z AUTO 21005KT 10SM CLR 02/02 A3009 RMK AO2 T00210015 =
2017-11-18 02:10 METAR KMFV 180710Z AUTO 19005KT 10SM CLR 02/01 A3009 RMK AO2 T00150008 =
2017-11-18 01:50 METAR KMFV 180650Z AUTO 20004KT 10SM CLR 02/01 A3009 RMK AO2 T00190012 =
2017-11-18 01:30 METAR KMFV 180630Z AUTO 18004KT 10SM CLR 02/01 A3009 RMK AO2 T00170011 =
2017-11-18 01:10 METAR KMFV 180610Z AUTO 18004KT 10SM CLR 01/00 A3010 RMK AO2 T00110003 =
2017-11-18 00:50 METAR KMFV 180550Z AUTO 19003KT 10SM CLR 01/00 A3011 RMK AO2 T00100001 10039
                 20003 =
2017-11-18 00:30 METAR KMFV 180530Z AUTO 18003KT 10SM CLR 01/00 A3012 RMK AO2 T00050000 =
2017-11-18 00:10 METAR KMFV 180510Z AUTO 19004KT 10SM CLR 01/00 A3012 RMK AO2 T00090003 =
2017-11-17 23:50 METAR KMFV 180450Z AUTO 16004KT 10SM CLR 01/01 A3012 RMK AO2 T00100005 401120003
                 =

Support USWX by starting your Amazon purchase here.